sensor_id;sensor_type;location;lat;lon;timestamp;temperature;humidity
48936;DHT22;34745;52.276;10.528;2024-03-02T00:01:36;9.40;1.00
48936;DHT22;34745;52.276;10.528;2024-03-02T00:04:04;9.30;1.00
48936;DHT22;34745;52.276;10.528;2024-03-02T00:06:33;9.30;1.00
48936;DHT22;34745;52.276;10.528;2024-03-02T00:09:01;9.20;1.00
48936;DHT22;34745;52.276;10.528;2024-03-02T00:11:28;9.20;1.00
48936;DHT22;34745;52.276;10.528;2024-03-02T00:13:55;9.10;1.00
48936;DHT22;34745;52.276;10.528;2024-03-02T00:16:22;9.20;1.00
48936;DHT22;34745;52.276;10.528;2024-03-02T00:18:52;9.10;1.00
48936;DHT22;34745;52.276;10.528;2024-03-02T00:21:19;9.10;1.00
48936;DHT22;34745;52.276;10.528;2024-03-02T00:23:49;9.00;1.00
48936;DHT22;34745;52.276;10.528;2024-03-02T00:26:19;9.00;1.00
48936;DHT22;34745;52.276;10.528;2024-03-02T00:28:46;9.10;1.00
48936;DHT22;34745;52.276;10.528;2024-03-02T00:31:13;9.10;1.00
48936;DHT22;34745;52.276;10.528;2024-03-02T00:33:43;9.20;1.00
48936;DHT22;34745;52.276;10.528;2024-03-02T00:36:13;10.40;1.00
48936;DHT22;34745;52.276;10.528;2024-03-02T00:38:44;9.10;1.00
48936;DHT22;34745;52.276;10.528;2024-03-02T00:41:17;9.10;1.00
48936;DHT22;34745;52.276;10.528;2024-03-02T00:43:47;9.10;1.00
48936;DHT22;34745;52.276;10.528;2024-03-02T00:46:18;9.10;1.00
48936;DHT22;34745;52.276;10.528;2024-03-02T00:48:51;9.10;1.00
48936;DHT22;34745;52.276;10.528;2024-03-02T00:51:22;9.20;1.00
48936;DHT22;34745;52.276;10.528;2024-03-02T00:53:49;9.20;1.00
48936;DHT22;34745;52.276;10.528;2024-03-02T00:56:17;9.20;1.00
48936;DHT22;34745;52.276;10.528;2024-03-02T00:58:44;9.20;1.00
48936;DHT22;34745;52.276;10.528;2024-03-02T01:01:11;9.20;1.00
48936;DHT22;34745;52.276;10.528;2024-03-02T01:03:38;9.20;1.00
48936;DHT22;34745;52.276;10.528;2024-03-02T01:06:06;9.20;1.00
48936;DHT22;34745;52.276;10.528;2024-03-02T01:08:35;9.20;1.00
48936;DHT22;34745;52.276;10.528;2024-03-02T01:11:03;9.20;1.00
48936;DHT22;34745;52.276;10.528;2024-03-02T01:13:30;9.20;1.00
48936;DHT22;34745;52.276;10.528;2024-03-02T01:15:57;9.20;1.00
48936;DHT22;34745;52.276;10.528;2024-03-02T01:18:26;9.20;1.00
48936;DHT22;34745;52.276;10.528;2024-03-02T01:20:53;9.10;1.00
48936;DHT22;34745;52.276;10.528;2024-03-02T01:23:22;9.10;1.00
48936;DHT22;34745;52.276;10.528;2024-03-02T01:25:51;9.10;1.00
48936;DHT22;34745;52.276;10.528;2024-03-02T01:28:19;9.10;1.00
48936;DHT22;34745;52.276;10.528;2024-03-02T01:30:47;9.10;1.00
48936;DHT22;34745;52.276;10.528;2024-03-02T01:33:14;9.00;1.00
48936;DHT22;34745;52.276;10.528;2024-03-02T01:35:42;9.00;1.00
48936;DHT22;34745;52.276;10.528;2024-03-02T01:38:09;9.00;1.00
48936;DHT22;34745;52.276;10.528;2024-03-02T01:40:37;9.10;1.00
48936;DHT22;34745;52.276;10.528;2024-03-02T01:43:06;9.10;1.00
48936;DHT22;34745;52.276;10.528;2024-03-02T01:45:34;9.00;1.00
48936;DHT22;34745;52.276;10.528;2024-03-02T01:48:03;9.00;1.00
48936;DHT22;34745;52.276;10.528;2024-03-02T01:50:32;9.00;1.00
48936;DHT22;34745;52.276;10.528;2024-03-02T01:53:00;9.10;1.00
48936;DHT22;34745;52.276;10.528;2024-03-02T01:55:27;9.00;1.00
48936;DHT22;34745;52.276;10.528;2024-03-02T01:57:58;9.10;1.00
48936;DHT22;34745;52.276;10.528;2024-03-02T02:00:27;10.90;1.00
48936;DHT22;34745;52.276;10.528;2024-03-02T02:02:55;9.10;1.00
48936;DHT22;34745;52.276;10.528;2024-03-02T02:05:22;9.00;1.00
48936;DHT22;34745;52.276;10.528;2024-03-02T02:07:50;9.00;1.00
48936;DHT22;34745;52.276;10.528;2024-03-02T02:10:17;9.00;1.00
48936;DHT22;34745;52.276;10.528;2024-03-02T02:12:44;8.90;1.00
48936;DHT22;34745;52.276;10.528;2024-03-02T02:15:24;8.90;1.00
48936;DHT22;34745;52.276;10.528;2024-03-02T02:17:53;8.90;1.00
48936;DHT22;34745;52.276;10.528;2024-03-02T02:20:21;8.90;1.00
48936;DHT22;34745;52.276;10.528;2024-03-02T02:22:57;8.90;1.00
48936;DHT22;34745;52.276;10.528;2024-03-02T02:25:24;8.90;1.00
48936;DHT22;34745;52.276;10.528;2024-03-02T02:27:51;9.00;1.00
48936;DHT22;34745;52.276;10.528;2024-03-02T02:30:19;8.80;1.00
48936;DHT22;34745;52.276;10.528;2024-03-02T02:32:47;8.80;1.00
48936;DHT22;34745;52.276;10.528;2024-03-02T02:35:14;8.80;1.00
48936;DHT22;34745;52.276;10.528;2024-03-02T02:37:41;8.70;1.00
48936;DHT22;34745;52.276;10.528;2024-03-02T02:40:11;8.80;1.00
48936;DHT22;34745;52.276;10.528;2024-03-02T02:42:38;8.70;1.00
48936;DHT22;34745;52.276;10.528;2024-03-02T02:45:06;8.70;1.00
48936;DHT22;34745;52.276;10.528;2024-03-02T02:47:33;8.60;1.00
48936;DHT22;34745;52.276;10.528;2024-03-02T02:50:03;8.70;1.00
48936;DHT22;34745;52.276;10.528;2024-03-02T02:52:31;8.70;1.00
48936;DHT22;34745;52.276;10.528;2024-03-02T02:54:59;8.70;1.00
48936;DHT22;34745;52.276;10.528;2024-03-02T02:57:28;8.70;1.00
48936;DHT22;34745;52.276;10.528;2024-03-02T02:59:57;8.80;1.00
48936;DHT22;34745;52.276;10.528;2024-03-02T03:02:24;8.70;1.00
48936;DHT22;34745;52.276;10.528;2024-03-02T03:04:54;8.70;1.00
48936;DHT22;34745;52.276;10.528;2024-03-02T03:07:23;8.80;1.00
48936;DHT22;34745;52.276;10.528;2024-03-02T03:09:51;8.80;1.00
48936;DHT22;34745;52.276;10.528;2024-03-02T03:12:18;8.80;1.00
48936;DHT22;34745;52.276;10.528;2024-03-02T03:14:46;8.80;1.00
48936;DHT22;34745;52.276;10.528;2024-03-02T03:17:13;8.90;1.00
48936;DHT22;34745;52.276;10.528;2024-03-02T03:19:40;8.70;1.00
48936;DHT22;34745;52.276;10.528;2024-03-02T03:22:07;8.80;1.00
48936;DHT22;34745;52.276;10.528;2024-03-02T03:24:35;8.80;1.00
48936;DHT22;34745;52.276;10.528;2024-03-02T03:27:02;8.80;1.00
48936;DHT22;34745;52.276;10.528;2024-03-02T03:29:29;8.80;1.00
48936;DHT22;34745;52.276;10.528;2024-03-02T03:31:57;8.80;1.00
48936;DHT22;34745;52.276;10.528;2024-03-02T03:34:25;8.80;1.00
48936;DHT22;34745;52.276;10.528;2024-03-02T03:36:52;8.80;1.00
48936;DHT22;34745;52.276;10.528;2024-03-02T03:39:19;8.80;1.00
48936;DHT22;34745;52.276;10.528;2024-03-02T03:41:46;8.90;1.00
48936;DHT22;34745;52.276;10.528;2024-03-02T03:44:13;8.90;1.00
48936;DHT22;34745;52.276;10.528;2024-03-02T03:46:40;8.90;1.00
48936;DHT22;34745;52.276;10.528;2024-03-02T03:49:09;8.80;1.00
48936;DHT22;34745;52.276;10.528;2024-03-02T03:51:36;8.90;1.00
48936;DHT22;34745;52.276;10.528;2024-03-02T03:54:04;8.90;1.00
48936;DHT22;34745;52.276;10.528;2024-03-02T03:56:31;8.80;1.00
48936;DHT22;34745;52.276;10.528;2024-03-02T03:58:58;8.80;1.00
48936;DHT22;34745;52.276;10.528;2024-03-02T04:01:26;8.90;1.00
48936;DHT22;34745;52.276;10.528;2024-03-02T04:03:53;8.80;1.00
48936;DHT22;34745;52.276;10.528;2024-03-02T04:06:22;8.80;1.00
48936;DHT22;34745;52.276;10.528;2024-03-02T04:08:49;8.80;1.00
48936;DHT22;34745;52.276;10.528;2024-03-02T04:11:16;8.90;1.00
48936;DHT22;34745;52.276;10.528;2024-03-02T04:13:43;8.80;1.00
48936;DHT22;34745;52.276;10.528;2024-03-02T04:16:10;8.80;1.00
48936;DHT22;34745;52.276;10.528;2024-03-02T04:18:39;8.80;1.00
48936;DHT22;34745;52.276;10.528;2024-03-02T04:21:07;9.90;1.00
48936;DHT22;34745;52.276;10.528;2024-03-02T04:23:35;8.80;1.00
48936;DHT22;34745;52.276;10.528;2024-03-02T04:26:02;8.80;1.00
48936;DHT22;34745;52.276;10.528;2024-03-02T04:28:29;8.80;1.00
48936;DHT22;34745;52.276;10.528;2024-03-02T04:30:56;8.90;1.00
48936;DHT22;34745;52.276;10.528;2024-03-02T04:33:23;8.80;1.00
48936;DHT22;34745;52.276;10.528;2024-03-02T04:35:51;8.70;1.00
48936;DHT22;34745;52.276;10.528;2024-03-02T04:38:18;8.70;1.00
48936;DHT22;34745;52.276;10.528;2024-03-02T04:40:46;8.60;1.00
48936;DHT22;34745;52.276;10.528;2024-03-02T04:43:13;8.60;1.00
48936;DHT22;34745;52.276;10.528;2024-03-02T04:45:43;8.60;1.00
48936;DHT22;34745;52.276;10.528;2024-03-02T04:48:11;8.60;1.00
48936;DHT22;34745;52.276;10.528;2024-03-02T04:50:38;8.60;1.00
48936;DHT22;34745;52.276;10.528;2024-03-02T04:53:05;8.50;1.00
48936;DHT22;34745;52.276;10.528;2024-03-02T04:55:32;8.50;1.00
48936;DHT22;34745;52.276;10.528;2024-03-02T04:58:23;8.50;1.00
48936;DHT22;34745;52.276;10.528;2024-03-02T05:00:50;8.50;1.00
48936;DHT22;34745;52.276;10.528;2024-03-02T05:03:17;8.60;1.00
48936;DHT22;34745;52.276;10.528;2024-03-02T05:05:44;8.60;1.00
48936;DHT22;34745;52.276;10.528;2024-03-02T05:08:11;8.60;1.00
48936;DHT22;34745;52.276;10.528;2024-03-02T05:10:39;8.60;1.00
48936;DHT22;34745;52.276;10.528;2024-03-02T05:13:06;8.60;1.00
48936;DHT22;34745;52.276;10.528;2024-03-02T05:15:34;8.60;1.00
48936;DHT22;34745;52.276;10.528;2024-03-02T05:18:01;8.50;1.00
48936;DHT22;34745;52.276;10.528;2024-03-02T05:20:32;8.50;1.00
48936;DHT22;34745;52.276;10.528;2024-03-02T05:22:59;8.50;1.00
48936;DHT22;34745;52.276;10.528;2024-03-02T05:25:26;8.50;1.00
48936;DHT22;34745;52.276;10.528;2024-03-02T05:27:53;8.50;1.00
48936;DHT22;34745;52.276;10.528;2024-03-02T05:30:20;8.40;1.00
48936;DHT22;34745;52.276;10.528;2024-03-02T05:32:48;8.40;1.00
48936;DHT22;34745;52.276;10.528;2024-03-02T05:35:15;8.40;1.00
48936;DHT22;34745;52.276;10.528;2024-03-02T05:37:42;8.40;1.00
48936;DHT22;34745;52.276;10.528;2024-03-02T05:40:10;8.60;1.00
48936;DHT22;34745;52.276;10.528;2024-03-02T05:42:38;8.40;1.00
48936;DHT22;34745;52.276;10.528;2024-03-02T05:45:06;8.40;1.00
48936;DHT22;34745;52.276;10.528;2024-03-02T05:47:33;8.30;1.00
48936;DHT22;34745;52.276;10.528;2024-03-02T05:50:01;8.40;1.00
48936;DHT22;34745;52.276;10.528;2024-03-02T05:52:30;8.30;1.00
48936;DHT22;34745;52.276;10.528;2024-03-02T05:54:57;8.30;1.00
48936;DHT22;34745;52.276;10.528;2024-03-02T05:57:24;8.30;1.00
48936;DHT22;34745;52.276;10.528;2024-03-02T06:00:01;8.20;1.00
48936;DHT22;34745;52.276;10.528;2024-03-02T06:02:27;8.10;1.00
48936;DHT22;34745;52.276;10.528;2024-03-02T06:04:55;8.10;1.00
48936;DHT22;34745;52.276;10.528;2024-03-02T06:07:24;8.10;1.00
48936;DHT22;34745;52.276;10.528;2024-03-02T06:09:51;8.20;1.00
48936;DHT22;34745;52.276;10.528;2024-03-02T06:12:19;8.10;2.70
48936;DHT22;34745;52.276;10.528;2024-03-02T06:14:46;8.20;1.00
48936;DHT22;34745;52.276;10.528;2024-03-02T06:17:13;8.10;1.00
48936;DHT22;34745;52.276;10.528;2024-03-02T06:19:40;8.10;3.40
48936;DHT22;34745;52.276;10.528;2024-03-02T06:22:07;8.20;2.60
48936;DHT22;34745;52.276;10.528;2024-03-02T06:24:38;8.10;2.00
48936;DHT22;34745;52.276;10.528;2024-03-02T06:27:05;8.10;1.00
48936;DHT22;34745;52.276;10.528;2024-03-02T06:29:32;8.10;1.30
48936;DHT22;34745;52.276;10.528;2024-03-02T06:31:59;8.10;1.00
48936;DHT22;34745;52.276;10.528;2024-03-02T06:34:27;8.10;1.00
48936;DHT22;34745;52.276;10.528;2024-03-02T06:36:53;8.10;2.20
48936;DHT22;34745;52.276;10.528;2024-03-02T06:39:20;8.10;1.00
48936;DHT22;34745;52.276;10.528;2024-03-02T06:41:49;8.10;1.00
48936;DHT22;34745;52.276;10.528;2024-03-02T06:44:16;8.20;1.90
48936;DHT22;34745;52.276;10.528;2024-03-02T06:46:42;8.10;2.20
48936;DHT22;34745;52.276;10.528;2024-03-02T06:49:09;8.10;3.50
48936;DHT22;34745;52.276;10.528;2024-03-02T06:51:37;8.10;2.50
48936;DHT22;34745;52.276;10.528;2024-03-02T06:54:04;8.10;2.10
48936;DHT22;34745;52.276;10.528;2024-03-02T06:56:31;8.20;1.00
48936;DHT22;34745;52.276;10.528;2024-03-02T06:59:01;8.20;1.20
48936;DHT22;34745;52.276;10.528;2024-03-02T07:01:28;8.10;1.00
48936;DHT22;34745;52.276;10.528;2024-03-02T07:03:55;8.10;1.00
48936;DHT22;34745;52.276;10.528;2024-03-02T07:06:22;8.10;1.00
48936;DHT22;34745;52.276;10.528;2024-03-02T07:08:49;8.10;2.70
48936;DHT22;34745;52.276;10.528;2024-03-02T07:11:16;8.10;1.80
48936;DHT22;34745;52.276;10.528;2024-03-02T07:13:43;8.10;1.00
48936;DHT22;34745;52.276;10.528;2024-03-02T07:16:11;8.20;1.30
48936;DHT22;34745;52.276;10.528;2024-03-02T07:18:47;8.20;1.00
48936;DHT22;34745;52.276;10.528;2024-03-02T07:21:19;8.20;1.00
48936;DHT22;34745;52.276;10.528;2024-03-02T07:23:46;8.20;1.00
48936;DHT22;34745;52.276;10.528;2024-03-02T07:26:13;8.20;2.90
48936;DHT22;34745;52.276;10.528;2024-03-02T07:28:44;8.20;5.10
48936;DHT22;34745;52.276;10.528;2024-03-02T07:31:13;8.30;5.00
48936;DHT22;34745;52.276;10.528;2024-03-02T07:33:40;8.30;1.00
48936;DHT22;34745;52.276;10.528;2024-03-02T07:36:08;8.30;1.00
48936;DHT22;34745;52.276;10.528;2024-03-02T07:38:35;8.30;1.80
48936;DHT22;34745;52.276;10.528;2024-03-02T07:41:02;8.40;1.20
48936;DHT22;34745;52.276;10.528;2024-03-02T07:43:31;8.40;1.00
48936;DHT22;34745;52.276;10.528;2024-03-02T07:46:00;8.40;1.00
48936;DHT22;34745;52.276;10.528;2024-03-02T07:48:28;8.40;1.40
48936;DHT22;34745;52.276;10.528;2024-03-02T07:50:55;8.40;1.00
48936;DHT22;34745;52.276;10.528;2024-03-02T07:53:22;8.50;1.00
48936;DHT22;34745;52.276;10.528;2024-03-02T07:55:50;8.50;1.00
48936;DHT22;34745;52.276;10.528;2024-03-02T07:58:16;8.50;1.00
48936;DHT22;34745;52.276;10.528;2024-03-02T08:00:46;8.60;1.00
48936;DHT22;34745;52.276;10.528;2024-03-02T08:03:14;8.70;1.00
48936;DHT22;34745;52.276;10.528;2024-03-02T08:05:44;8.80;1.00
48936;DHT22;34745;52.276;10.528;2024-03-02T08:08:11;8.80;1.00
48936;DHT22;34745;52.276;10.528;2024-03-02T08:10:38;8.80;1.00
48936;DHT22;34745;52.276;10.528;2024-03-02T08:13:05;8.90;1.00
48936;DHT22;34745;52.276;10.528;2024-03-02T08:15:32;9.00;1.00
48936;DHT22;34745;52.276;10.528;2024-03-02T08:18:00;9.10;1.00
48936;DHT22;34745;52.276;10.528;2024-03-02T08:20:28;9.10;1.00
48936;DHT22;34745;52.276;10.528;2024-03-02T08:22:56;9.20;1.00
48936;DHT22;34745;52.276;10.528;2024-03-02T08:25:23;9.20;1.00
48936;DHT22;34745;52.276;10.528;2024-03-02T08:27:50;9.30;1.00
48936;DHT22;34745;52.276;10.528;2024-03-02T08:30:17;9.40;1.00
48936;DHT22;34745;52.276;10.528;2024-03-02T08:32:45;9.40;1.00
48936;DHT22;34745;52.276;10.528;2024-03-02T08:35:14;9.40;1.00
48936;DHT22;34745;52.276;10.528;2024-03-02T08:37:41;9.40;1.00
48936;DHT22;34745;52.276;10.528;2024-03-02T08:40:11;9.40;1.00
48936;DHT22;34745;52.276;10.528;2024-03-02T08:42:43;9.50;1.00
48936;DHT22;34745;52.276;10.528;2024-03-02T08:45:10;9.50;1.00
48936;DHT22;34745;52.276;10.528;2024-03-02T08:47:37;9.60;1.00
48936;DHT22;34745;52.276;10.528;2024-03-02T08:50:06;9.60;1.00
48936;DHT22;34745;52.276;10.528;2024-03-02T08:52:33;9.70;1.00
48936;DHT22;34745;52.276;10.528;2024-03-02T08:55:00;9.80;1.00
48936;DHT22;34745;52.276;10.528;2024-03-02T08:57:28;9.80;1.00
48936;DHT22;34745;52.276;10.528;2024-03-02T08:59:55;9.80;1.00
48936;DHT22;34745;52.276;10.528;2024-03-02T09:02:23;10.10;1.00
48936;DHT22;34745;52.276;10.528;2024-03-02T09:04:50;10.30;1.00
48936;DHT22;34745;52.276;10.528;2024-03-02T09:07:18;10.30;1.00
48936;DHT22;34745;52.276;10.528;2024-03-02T09:09:45;10.30;1.00
48936;DHT22;34745;52.276;10.528;2024-03-02T09:12:12;10.40;1.00
48936;DHT22;34745;52.276;10.528;2024-03-02T09:14:41;10.40;1.00
48936;DHT22;34745;52.276;10.528;2024-03-02T09:17:08;10.40;1.00
48936;DHT22;34745;52.276;10.528;2024-03-02T09:19:37;10.30;1.00
48936;DHT22;34745;52.276;10.528;2024-03-02T09:22:05;10.30;1.00
48936;DHT22;34745;52.276;10.528;2024-03-02T09:24:32;10.30;1.00
48936;DHT22;34745;52.276;10.528;2024-03-02T09:27:02;10.40;1.00
48936;DHT22;34745;52.276;10.528;2024-03-02T09:29:29;10.40;1.00
48936;DHT22;34745;52.276;10.528;2024-03-02T09:31:57;10.50;1.00
48936;DHT22;34745;52.276;10.528;2024-03-02T09:34:24;10.60;1.00
48936;DHT22;34745;52.276;10.528;2024-03-02T09:36:51;10.60;1.00
48936;DHT22;34745;52.276;10.528;2024-03-02T09:39:19;10.60;1.00
48936;DHT22;34745;52.276;10.528;2024-03-02T09:41:47;10.70;1.00
48936;DHT22;34745;52.276;10.528;2024-03-02T09:44:14;10.80;1.00
48936;DHT22;34745;52.276;10.528;2024-03-02T09:46:41;10.90;1.00
48936;DHT22;34745;52.276;10.528;2024-03-02T09:49:12;11.00;1.00
48936;DHT22;34745;52.276;10.528;2024-03-02T09:51:39;10.90;1.00
48936;DHT22;34745;52.276;10.528;2024-03-02T09:54:07;11.00;1.00
48936;DHT22;34745;52.276;10.528;2024-03-02T09:56:47;11.00;1.00
48936;DHT22;34745;52.276;10.528;2024-03-02T09:59:14;11.10;1.00
48936;DHT22;34745;52.276;10.528;2024-03-02T10:01:56;11.30;1.00
48936;DHT22;34745;52.276;10.528;2024-03-02T10:04:25;11.30;1.00
48936;DHT22;34745;52.276;10.528;2024-03-02T10:07:09;11.40;1.00
48936;DHT22;34745;52.276;10.528;2024-03-02T10:09:38;11.60;1.00
48936;DHT22;34745;52.276;10.528;2024-03-02T10:12:07;11.70;1.00
48936;DHT22;34745;52.276;10.528;2024-03-02T10:14:34;11.70;1.00
48936;DHT22;34745;52.276;10.528;2024-03-02T10:17:03;11.70;1.00
48936;DHT22;34745;52.276;10.528;2024-03-02T10:19:32;11.80;1.00
48936;DHT22;34745;52.276;10.528;2024-03-02T10:22:00;11.90;1.00
48936;DHT22;34745;52.276;10.528;2024-03-02T10:24:35;11.60;1.00
48936;DHT22;34745;52.276;10.528;2024-03-02T10:27:07;12.00;1.00
48936;DHT22;34745;52.276;10.528;2024-03-02T10:29:39;12.00;1.00
48936;DHT22;34745;52.276;10.528;2024-03-02T10:32:09;12.00;1.00
48936;DHT22;34745;52.276;10.528;2024-03-02T10:34:40;12.00;1.00
48936;DHT22;34745;52.276;10.528;2024-03-02T10:37:07;12.00;1.00
48936;DHT22;34745;52.276;10.528;2024-03-02T10:39:35;12.10;1.00
48936;DHT22;34745;52.276;10.528;2024-03-02T10:42:09;12.20;1.00
48936;DHT22;34745;52.276;10.528;2024-03-02T10:44:36;12.40;1.00
48936;DHT22;34745;52.276;10.528;2024-03-02T10:47:04;12.50;1.00
48936;DHT22;34745;52.276;10.528;2024-03-02T10:49:32;12.80;1.00
48936;DHT22;34745;52.276;10.528;2024-03-02T10:52:01;13.00;1.00
48936;DHT22;34745;52.276;10.528;2024-03-02T10:54:29;13.10;1.00
48936;DHT22;34745;52.276;10.528;2024-03-02T10:57:03;13.10;1.00
48936;DHT22;34745;52.276;10.528;2024-03-02T10:59:34;13.20;1.00
48936;DHT22;34745;52.276;10.528;2024-03-02T11:02:03;13.20;1.00
48936;DHT22;34745;52.276;10.528;2024-03-02T11:04:35;13.10;1.00
48936;DHT22;34745;52.276;10.528;2024-03-02T11:07:07;13.10;1.00
48936;DHT22;34745;52.276;10.528;2024-03-02T11:09:37;13.00;1.00
48936;DHT22;34745;52.276;10.528;2024-03-02T11:12:12;13.00;1.00
48936;DHT22;34745;52.276;10.528;2024-03-02T11:14:41;12.90;1.00
48936;DHT22;34745;52.276;10.528;2024-03-02T11:17:14;12.90;1.00
48936;DHT22;34745;52.276;10.528;2024-03-02T11:19:42;13.00;1.00
48936;DHT22;34745;52.276;10.528;2024-03-02T11:22:12;13.00;1.00
48936;DHT22;34745;52.276;10.528;2024-03-02T11:24:48;12.90;1.00
48936;DHT22;34745;52.276;10.528;2024-03-02T11:30:49;12.90;1.00
48936;DHT22;34745;52.276;10.528;2024-03-02T11:33:24;12.80;1.00
48936;DHT22;34745;52.276;10.528;2024-03-02T11:35:52;12.80;1.00
48936;DHT22;34745;52.276;10.528;2024-03-02T11:38:19;13.00;1.00
48936;DHT22;34745;52.276;10.528;2024-03-02T11:40:46;12.80;1.00
48936;DHT22;34745;52.276;10.528;2024-03-02T11:43:14;12.90;1.00
48936;DHT22;34745;52.276;10.528;2024-03-02T11:45:43;13.00;1.00
48936;DHT22;34745;52.276;10.528;2024-03-02T11:48:14;12.90;1.00
48936;DHT22;34745;52.276;10.528;2024-03-02T11:50:46;13.10;1.00
48936;DHT22;34745;52.276;10.528;2024-03-02T11:53:13;13.20;1.00
48936;DHT22;34745;52.276;10.528;2024-03-02T11:55:41;13.20;1.00
48936;DHT22;34745;52.276;10.528;2024-03-02T11:58:08;13.20;1.00
48936;DHT22;34745;52.276;10.528;2024-03-02T12:00:35;13.30;1.00
48936;DHT22;34745;52.276;10.528;2024-03-02T12:03:05;13.50;1.00
48936;DHT22;34745;52.276;10.528;2024-03-02T12:05:34;13.50;1.00
48936;DHT22;34745;52.276;10.528;2024-03-02T12:08:04;13.60;1.00
48936;DHT22;34745;52.276;10.528;2024-03-02T12:10:31;13.70;1.00
48936;DHT22;34745;52.276;10.528;2024-03-02T12:13:00;13.70;1.00
48936;DHT22;34745;52.276;10.528;2024-03-02T12:15:28;13.70;1.00
48936;DHT22;34745;52.276;10.528;2024-03-02T12:17:56;13.70;1.00
48936;DHT22;34745;52.276;10.528;2024-03-02T12:20:24;13.70;1.00
48936;DHT22;34745;52.276;10.528;2024-03-02T12:22:53;13.90;1.00
48936;DHT22;34745;52.276;10.528;2024-03-02T12:25:22;14.30;1.00
48936;DHT22;34745;52.276;10.528;2024-03-02T12:27:51;14.80;1.00
48936;DHT22;34745;52.276;10.528;2024-03-02T12:30:19;15.10;1.00
48936;DHT22;34745;52.276;10.528;2024-03-02T12:32:47;15.40;1.00
48936;DHT22;34745;52.276;10.528;2024-03-02T12:35:14;15.70;1.00
48936;DHT22;34745;52.276;10.528;2024-03-02T12:37:44;15.90;1.00
48936;DHT22;34745;52.276;10.528;2024-03-02T12:40:13;16.20;1.00
48936;DHT22;34745;52.276;10.528;2024-03-02T12:42:41;16.60;1.00
48936;DHT22;34745;52.276;10.528;2024-03-02T12:45:11;16.90;1.00
48936;DHT22;34745;52.276;10.528;2024-03-02T12:47:39;17.00;1.00
48936;DHT22;34745;52.276;10.528;2024-03-02T12:50:08;17.20;1.00
48936;DHT22;34745;52.276;10.528;2024-03-02T12:52:35;17.40;1.00
48936;DHT22;34745;52.276;10.528;2024-03-02T12:55:05;17.50;1.00
48936;DHT22;34745;52.276;10.528;2024-03-02T12:57:34;17.90;1.00
48936;DHT22;34745;52.276;10.528;2024-03-02T13:00:02;17.90;1.00
48936;DHT22;34745;52.276;10.528;2024-03-02T13:02:36;17.90;1.00
48936;DHT22;34745;52.276;10.528;2024-03-02T13:05:06;18.10;1.00
48936;DHT22;34745;52.276;10.528;2024-03-02T13:10:06;17.90;1.00
48936;DHT22;34745;52.276;10.528;2024-03-02T13:12:37;17.90;1.00
48936;DHT22;34745;52.276;10.528;2024-03-02T13:15:05;17.90;1.00
48936;DHT22;34745;52.276;10.528;2024-03-02T13:17:34;17.70;1.00
48936;DHT22;34745;52.276;10.528;2024-03-02T13:20:05;17.20;1.00
48936;DHT22;34745;52.276;10.528;2024-03-02T13:22:38;17.20;1.00
48936;DHT22;34745;52.276;10.528;2024-03-02T13:25:05;17.20;1.00
48936;DHT22;34745;52.276;10.528;2024-03-02T13:27:33;17.00;1.00
48936;DHT22;34745;52.276;10.528;2024-03-02T13:30:04;16.90;1.00
48936;DHT22;34745;52.276;10.528;2024-03-02T13:32:32;16.70;1.00
48936;DHT22;34745;52.276;10.528;2024-03-02T13:34:59;16.40;1.00
48936;DHT22;34745;52.276;10.528;2024-03-02T13:37:27;16.40;1.00
48936;DHT22;34745;52.276;10.528;2024-03-02T13:39:54;16.30;1.00
48936;DHT22;34745;52.276;10.528;2024-03-02T13:42:21;16.00;1.00
48936;DHT22;34745;52.276;10.528;2024-03-02T13:44:48;16.20;1.00
48936;DHT22;34745;52.276;10.528;2024-03-02T13:47:19;15.60;1.00
48936;DHT22;34745;52.276;10.528;2024-03-02T13:49:47;15.60;1.00
48936;DHT22;34745;52.276;10.528;2024-03-02T13:52:15;15.70;1.00
48936;DHT22;34745;52.276;10.528;2024-03-02T13:54:47;15.50;1.00
48936;DHT22;34745;52.276;10.528;2024-03-02T13:57:14;15.40;1.00
48936;DHT22;34745;52.276;10.528;2024-03-02T13:59:42;15.50;1.00
48936;DHT22;34745;52.276;10.528;2024-03-02T14:02:11;15.70;1.00
48936;DHT22;34745;52.276;10.528;2024-03-02T14:04:40;16.20;1.00
48936;DHT22;34745;52.276;10.528;2024-03-02T14:07:08;16.70;1.00
48936;DHT22;34745;52.276;10.528;2024-03-02T14:09:36;17.20;1.00
48936;DHT22;34745;52.276;10.528;2024-03-02T14:12:04;17.50;1.00
48936;DHT22;34745;52.276;10.528;2024-03-02T14:14:32;17.90;1.00
48936;DHT22;34745;52.276;10.528;2024-03-02T14:16:59;18.00;1.00
48936;DHT22;34745;52.276;10.528;2024-03-02T14:19:33;18.30;1.40
48936;DHT22;34745;52.276;10.528;2024-03-02T14:22:02;18.50;99.90
48936;DHT22;34745;52.276;10.528;2024-03-02T14:24:29;18.70;1.40
48936;DHT22;34745;52.276;10.528;2024-03-02T14:26:56;18.50;99.90
48936;DHT22;34745;52.276;10.528;2024-03-02T14:29:45;18.40;99.90
48936;DHT22;34745;52.276;10.528;2024-03-02T14:32:12;18.50;99.90
48936;DHT22;34745;52.276;10.528;2024-03-02T14:34:39;18.40;99.90
48936;DHT22;34745;52.276;10.528;2024-03-02T14:37:08;18.40;99.90
48936;DHT22;34745;52.276;10.528;2024-03-02T14:39:35;18.40;99.90
48936;DHT22;34745;52.276;10.528;2024-03-02T14:42:03;18.60;99.90
48936;DHT22;34745;52.276;10.528;2024-03-02T14:44:30;18.90;99.90
48936;DHT22;34745;52.276;10.528;2024-03-02T14:46:57;19.00;99.90
48936;DHT22;34745;52.276;10.528;2024-03-02T14:49:26;19.20;99.90
48936;DHT22;34745;52.276;10.528;2024-03-02T14:51:53;19.00;99.90
48936;DHT22;34745;52.276;10.528;2024-03-02T14:54:22;18.80;99.90
48936;DHT22;34745;52.276;10.528;2024-03-02T14:56:49;18.70;99.90
48936;DHT22;34745;52.276;10.528;2024-03-02T14:59:17;18.50;99.90
48936;DHT22;34745;52.276;10.528;2024-03-02T15:01:44;18.40;99.90
48936;DHT22;34745;52.276;10.528;2024-03-02T15:04:11;18.00;99.90
48936;DHT22;34745;52.276;10.528;2024-03-02T15:06:39;18.00;99.90
48936;DHT22;34745;52.276;10.528;2024-03-02T15:09:06;17.90;99.90
48936;DHT22;34745;52.276;10.528;2024-03-02T15:11:34;17.60;99.90
48936;DHT22;34745;52.276;10.528;2024-03-02T15:14:02;17.20;99.90
48936;DHT22;34745;52.276;10.528;2024-03-02T15:16:29;17.10;99.90
48936;DHT22;34745;52.276;10.528;2024-03-02T15:18:56;17.10;1.00
48936;DHT22;34745;52.276;10.528;2024-03-02T15:21:23;16.80;1.00
48936;DHT22;34745;52.276;10.528;2024-03-02T15:23:50;17.00;1.00
48936;DHT22;34745;52.276;10.528;2024-03-02T15:26:17;16.40;1.00
48936;DHT22;34745;52.276;10.528;2024-03-02T15:28:45;16.40;1.00
48936;DHT22;34745;52.276;10.528;2024-03-02T15:31:13;16.10;1.00
48936;DHT22;34745;52.276;10.528;2024-03-02T15:33:39;16.10;1.00
48936;DHT22;34745;52.276;10.528;2024-03-02T15:36:07;16.10;1.00
48936;DHT22;34745;52.276;10.528;2024-03-02T15:38:34;16.00;1.00
48936;DHT22;34745;52.276;10.528;2024-03-02T15:41:07;15.90;1.00
48936;DHT22;34745;52.276;10.528;2024-03-02T15:43:34;15.90;1.00
48936;DHT22;34745;52.276;10.528;2024-03-02T15:46:06;15.80;1.00
48936;DHT22;34745;52.276;10.528;2024-03-02T15:48:33;15.60;1.00
48936;DHT22;34745;52.276;10.528;2024-03-02T15:53:32;15.20;1.00